sensor_id;sensor_type;location;lat;lon;timestamp;temperature;humidity
15879;DHT22;61999;51.514;14.614;2022-09-03T00:02:33;8.40;52.00
15879;DHT22;61999;51.514;14.614;2022-09-03T00:05:10;8.30;52.30
15879;DHT22;61999;51.514;14.614;2022-09-03T00:07:48;8.30;52.20
15879;DHT22;61999;51.514;14.614;2022-09-03T00:10:27;8.30;51.90
15879;DHT22;61999;51.514;14.614;2022-09-03T00:13:02;8.30;52.60
15879;DHT22;61999;51.514;14.614;2022-09-03T00:15:34;8.30;52.70
15879;DHT22;61999;51.514;14.614;2022-09-03T00:18:09;8.30;52.00
15879;DHT22;61999;51.514;14.614;2022-09-03T00:20:45;8.40;52.40
15879;DHT22;61999;51.514;14.614;2022-09-03T00:23:21;8.30;52.40
15879;DHT22;61999;51.514;14.614;2022-09-03T00:25:57;8.30;51.90
15879;DHT22;61999;51.514;14.614;2022-09-03T00:28:35;8.30;51.40
15879;DHT22;61999;51.514;14.614;2022-09-03T00:31:12;8.30;52.10
15879;DHT22;61999;51.514;14.614;2022-09-03T00:33:47;8.10;53.40
15879;DHT22;61999;51.514;14.614;2022-09-03T00:36:21;8.10;52.50
15879;DHT22;61999;51.514;14.614;2022-09-03T00:38:56;8.10;53.50
15879;DHT22;61999;51.514;14.614;2022-09-03T00:41:32;8.00;53.60
15879;DHT22;61999;51.514;14.614;2022-09-03T00:44:25;8.00;53.40
15879;DHT22;61999;51.514;14.614;2022-09-03T00:47:10;8.00;53.60
15879;DHT22;61999;51.514;14.614;2022-09-03T00:49:56;8.00;53.20
15879;DHT22;61999;51.514;14.614;2022-09-03T00:52:40;8.00;53.40
15879;DHT22;61999;51.514;14.614;2022-09-03T00:55:26;7.90;54.30
15879;DHT22;61999;51.514;14.614;2022-09-03T00:58:14;7.90;53.20
15879;DHT22;61999;51.514;14.614;2022-09-03T01:00:58;7.80;54.30
15879;DHT22;61999;51.514;14.614;2022-09-03T01:03:34;7.80;54.00
15879;DHT22;61999;51.514;14.614;2022-09-03T01:06:17;7.80;54.30
15879;DHT22;61999;51.514;14.614;2022-09-03T01:09:02;7.80;54.80
15879;DHT22;61999;51.514;14.614;2022-09-03T01:11:45;7.70;54.60
15879;DHT22;61999;51.514;14.614;2022-09-03T01:14:33;7.70;54.60
15879;DHT22;61999;51.514;14.614;2022-09-03T01:17:15;7.70;54.50
15879;DHT22;61999;51.514;14.614;2022-09-03T01:20:18;7.50;56.00
15879;DHT22;61999;51.514;14.614;2022-09-03T01:23:20;7.40;55.80
15879;DHT22;61999;51.514;14.614;2022-09-03T01:26:15;7.40;56.50
15879;DHT22;61999;51.514;14.614;2022-09-03T01:29:11;7.30;56.40
15879;DHT22;61999;51.514;14.614;2022-09-03T01:31:54;7.30;55.70
15879;DHT22;61999;51.514;14.614;2022-09-03T01:34:39;7.30;56.30
15879;DHT22;61999;51.514;14.614;2022-09-03T01:37:26;7.30;56.10
15879;DHT22;61999;51.514;14.614;2022-09-03T01:40:06;7.30;56.10
15879;DHT22;61999;51.514;14.614;2022-09-03T01:42:50;7.30;55.60
15879;DHT22;61999;51.514;14.614;2022-09-03T01:45:36;7.30;56.50
15879;DHT22;61999;51.514;14.614;2022-09-03T01:48:36;7.30;56.10
15879;DHT22;61999;51.514;14.614;2022-09-03T01:51:15;7.30;55.40
15879;DHT22;61999;51.514;14.614;2022-09-03T01:54:13;7.20;56.30
15879;DHT22;61999;51.514;14.614;2022-09-03T01:57:13;7.20;56.20
15879;DHT22;61999;51.514;14.614;2022-09-03T01:59:54;7.10;56.90
15879;DHT22;61999;51.514;14.614;2022-09-03T02:02:29;7.20;55.30
15879;DHT22;61999;51.514;14.614;2022-09-03T02:05:00;7.20;55.80
15879;DHT22;61999;51.514;14.614;2022-09-03T02:07:36;7.20;56.80
15879;DHT22;61999;51.514;14.614;2022-09-03T02:10:08;7.10;55.80
15879;DHT22;61999;51.514;14.614;2022-09-03T02:12:40;7.20;56.00
15879;DHT22;61999;51.514;14.614;2022-09-03T02:15:16;7.10;56.10
15879;DHT22;61999;51.514;14.614;2022-09-03T02:17:51;7.10;56.70
15879;DHT22;61999;51.514;14.614;2022-09-03T02:20:24;7.10;56.00
15879;DHT22;61999;51.514;14.614;2022-09-03T02:22:56;7.10;55.80
15879;DHT22;61999;51.514;14.614;2022-09-03T02:25:34;7.10;56.00
15879;DHT22;61999;51.514;14.614;2022-09-03T02:28:05;7.10;55.70
15879;DHT22;61999;51.514;14.614;2022-09-03T02:30:35;7.00;56.40
15879;DHT22;61999;51.514;14.614;2022-09-03T02:33:05;7.00;56.70
15879;DHT22;61999;51.514;14.614;2022-09-03T02:35:36;7.00;57.00
15879;DHT22;61999;51.514;14.614;2022-09-03T02:38:10;6.90;57.20
15879;DHT22;61999;51.514;14.614;2022-09-03T02:40:39;6.90;57.40
15879;DHT22;61999;51.514;14.614;2022-09-03T02:43:12;6.90;56.70
15879;DHT22;61999;51.514;14.614;2022-09-03T02:45:47;6.90;56.20
15879;DHT22;61999;51.514;14.614;2022-09-03T02:48:22;6.90;56.70
15879;DHT22;61999;51.514;14.614;2022-09-03T02:50:51;6.80;57.20
15879;DHT22;61999;51.514;14.614;2022-09-03T02:53:19;6.80;57.60
15879;DHT22;61999;51.514;14.614;2022-09-03T02:55:47;6.80;57.70
15879;DHT22;61999;51.514;14.614;2022-09-03T02:58:15;6.70;58.40
15879;DHT22;61999;51.514;14.614;2022-09-03T03:00:43;6.70;57.10
15879;DHT22;61999;51.514;14.614;2022-09-03T03:03:11;6.70;57.50
15879;DHT22;61999;51.514;14.614;2022-09-03T03:05:44;6.70;57.90
15879;DHT22;61999;51.514;14.614;2022-09-03T03:08:15;6.60;58.60
15879;DHT22;61999;51.514;14.614;2022-09-03T03:10:47;6.60;57.80
15879;DHT22;61999;51.514;14.614;2022-09-03T03:13:17;6.60;58.50
15879;DHT22;61999;51.514;14.614;2022-09-03T03:15:45;6.60;58.40
15879;DHT22;61999;51.514;14.614;2022-09-03T03:18:14;6.60;59.00
15879;DHT22;61999;51.514;14.614;2022-09-03T03:20:47;6.60;58.40
15879;DHT22;61999;51.514;14.614;2022-09-03T03:23:15;6.50;59.10
15879;DHT22;61999;51.514;14.614;2022-09-03T03:25:43;6.50;59.20
15879;DHT22;61999;51.514;14.614;2022-09-03T03:28:11;6.50;58.00
15879;DHT22;61999;51.514;14.614;2022-09-03T03:30:40;6.60;57.80
15879;DHT22;61999;51.514;14.614;2022-09-03T03:33:09;6.50;58.70
15879;DHT22;61999;51.514;14.614;2022-09-03T03:35:37;6.60;59.60
15879;DHT22;61999;51.514;14.614;2022-09-03T03:38:07;6.60;59.30
15879;DHT22;61999;51.514;14.614;2022-09-03T03:40:36;6.50;59.30
15879;DHT22;61999;51.514;14.614;2022-09-03T03:43:05;6.60;58.70
15879;DHT22;61999;51.514;14.614;2022-09-03T03:45:33;6.60;58.70
15879;DHT22;61999;51.514;14.614;2022-09-03T03:48:01;6.60;58.90
15879;DHT22;61999;51.514;14.614;2022-09-03T03:50:29;6.60;58.40
15879;DHT22;61999;51.514;14.614;2022-09-03T03:52:58;6.60;58.90
15879;DHT22;61999;51.514;14.614;2022-09-03T03:55:28;6.60;58.30
15879;DHT22;61999;51.514;14.614;2022-09-03T03:57:57;6.60;58.90
15879;DHT22;61999;51.514;14.614;2022-09-03T04:00:25;6.60;58.80
15879;DHT22;61999;51.514;14.614;2022-09-03T04:02:53;6.60;58.40
15879;DHT22;61999;51.514;14.614;2022-09-03T04:05:21;6.60;58.80
15879;DHT22;61999;51.514;14.614;2022-09-03T04:07:49;6.60;58.50
15879;DHT22;61999;51.514;14.614;2022-09-03T04:10:17;6.60;58.50
15879;DHT22;61999;51.514;14.614;2022-09-03T04:12:46;6.70;58.00
15879;DHT22;61999;51.514;14.614;2022-09-03T04:15:14;6.70;58.20
15879;DHT22;61999;51.514;14.614;2022-09-03T04:17:42;6.60;59.40
15879;DHT22;61999;51.514;14.614;2022-09-03T04:20:10;6.50;59.10
15879;DHT22;61999;51.514;14.614;2022-09-03T04:22:38;6.50;59.80
15879;DHT22;61999;51.514;14.614;2022-09-03T04:25:07;6.50;59.50
15879;DHT22;61999;51.514;14.614;2022-09-03T04:27:35;6.60;59.20
15879;DHT22;61999;51.514;14.614;2022-09-03T04:30:06;6.50;59.20
15879;DHT22;61999;51.514;14.614;2022-09-03T04:32:35;6.40;59.80
15879;DHT22;61999;51.514;14.614;2022-09-03T04:35:23;6.50;59.80
15879;DHT22;61999;51.514;14.614;2022-09-03T04:37:54;6.50;59.60
15879;DHT22;61999;51.514;14.614;2022-09-03T04:40:24;6.60;59.00
15879;DHT22;61999;51.514;14.614;2022-09-03T04:42:56;6.60;58.90
15879;DHT22;61999;51.514;14.614;2022-09-03T04:45:26;6.60;59.20
15879;DHT22;61999;51.514;14.614;2022-09-03T04:47:56;6.60;59.30
15879;DHT22;61999;51.514;14.614;2022-09-03T04:50:25;6.60;59.10
15879;DHT22;61999;51.514;14.614;2022-09-03T04:52:54;6.50;59.40
15879;DHT22;61999;51.514;14.614;2022-09-03T04:55:23;6.50;59.20
15879;DHT22;61999;51.514;14.614;2022-09-03T04:57:52;6.60;59.20
15879;DHT22;61999;51.514;14.614;2022-09-03T05:00:19;6.60;59.20
15879;DHT22;61999;51.514;14.614;2022-09-03T05:02:49;6.60;59.40
15879;DHT22;61999;51.514;14.614;2022-09-03T05:05:17;6.60;59.30
15879;DHT22;61999;51.514;14.614;2022-09-03T05:07:45;6.50;59.70
15879;DHT22;61999;51.514;14.614;2022-09-03T05:10:13;6.50;59.30
15879;DHT22;61999;51.514;14.614;2022-09-03T05:12:46;6.60;59.60
15879;DHT22;61999;51.514;14.614;2022-09-03T05:15:15;6.60;59.40
15879;DHT22;61999;51.514;14.614;2022-09-03T05:17:43;6.60;59.70
15879;DHT22;61999;51.514;14.614;2022-09-03T05:20:12;6.60;59.90
15879;DHT22;61999;51.514;14.614;2022-09-03T05:22:40;6.70;59.80
15879;DHT22;61999;51.514;14.614;2022-09-03T05:25:08;6.70;59.50
15879;DHT22;61999;51.514;14.614;2022-09-03T05:27:36;6.80;59.50
15879;DHT22;61999;51.514;14.614;2022-09-03T05:30:05;6.80;59.20
15879;DHT22;61999;51.514;14.614;2022-09-03T05:32:34;6.90;59.10
15879;DHT22;61999;51.514;14.614;2022-09-03T05:35:02;6.90;59.40
15879;DHT22;61999;51.514;14.614;2022-09-03T05:37:33;7.00;59.10
15879;DHT22;61999;51.514;14.614;2022-09-03T05:40:01;7.00;59.10
15879;DHT22;61999;51.514;14.614;2022-09-03T05:42:30;7.10;59.00
15879;DHT22;61999;51.514;14.614;2022-09-03T05:45:00;7.10;59.20
15879;DHT22;61999;51.514;14.614;2022-09-03T05:47:29;7.10;58.90
15879;DHT22;61999;51.514;14.614;2022-09-03T05:49:56;7.20;58.70
15879;DHT22;61999;51.514;14.614;2022-09-03T05:52:24;7.20;58.90
15879;DHT22;61999;51.514;14.614;2022-09-03T05:54:54;7.30;58.60
15879;DHT22;61999;51.514;14.614;2022-09-03T05:57:22;7.50;58.30
15879;DHT22;61999;51.514;14.614;2022-09-03T05:59:50;7.60;58.00
15879;DHT22;61999;51.514;14.614;2022-09-03T06:02:18;7.50;58.30
15879;DHT22;61999;51.514;14.614;2022-09-03T06:04:46;7.60;58.20
15879;DHT22;61999;51.514;14.614;2022-09-03T06:07:14;7.60;58.00
15879;DHT22;61999;51.514;14.614;2022-09-03T06:09:42;7.70;57.80
15879;DHT22;61999;51.514;14.614;2022-09-03T06:12:11;7.70;58.20
15879;DHT22;61999;51.514;14.614;2022-09-03T06:14:39;7.80;57.90
15879;DHT22;61999;51.514;14.614;2022-09-03T06:17:07;7.80;57.90
15879;DHT22;61999;51.514;14.614;2022-09-03T06:19:36;7.80;57.90
15879;DHT22;61999;51.514;14.614;2022-09-03T06:22:05;8.00;57.80
15879;DHT22;61999;51.514;14.614;2022-09-03T06:24:32;8.10;57.60
15879;DHT22;61999;51.514;14.614;2022-09-03T06:27:00;8.10;57.50
15879;DHT22;61999;51.514;14.614;2022-09-03T06:29:30;8.00;57.60
15879;DHT22;61999;51.514;14.614;2022-09-03T06:31:58;8.00;57.60
15879;DHT22;61999;51.514;14.614;2022-09-03T06:34:27;8.00;57.70
15879;DHT22;61999;51.514;14.614;2022-09-03T06:36:55;8.10;57.30
15879;DHT22;61999;51.514;14.614;2022-09-03T06:39:24;7.90;57.80
15879;DHT22;61999;51.514;14.614;2022-09-03T06:41:52;8.00;57.90
15879;DHT22;61999;51.514;14.614;2022-09-03T06:44:20;8.10;57.90
15879;DHT22;61999;51.514;14.614;2022-09-03T06:46:50;8.10;57.80
15879;DHT22;61999;51.514;14.614;2022-09-03T06:49:19;8.30;57.90
15879;DHT22;61999;51.514;14.614;2022-09-03T06:51:47;8.50;57.80
15879;DHT22;61999;51.514;14.614;2022-09-03T06:54:15;8.60;57.60
15879;DHT22;61999;51.514;14.614;2022-09-03T06:56:43;8.80;57.50
15879;DHT22;61999;51.514;14.614;2022-09-03T06:59:12;8.90;57.10
15879;DHT22;61999;51.514;14.614;2022-09-03T07:01:42;9.00;56.70
15879;DHT22;61999;51.514;14.614;2022-09-03T07:04:13;9.30;56.70
15879;DHT22;61999;51.514;14.614;2022-09-03T07:06:42;9.40;56.40
15879;DHT22;61999;51.514;14.614;2022-09-03T07:09:11;9.60;56.10
15879;DHT22;61999;51.514;14.614;2022-09-03T07:11:40;9.70;54.00
15879;DHT22;61999;51.514;14.614;2022-09-03T07:14:13;9.70;54.50
15879;DHT22;61999;51.514;14.614;2022-09-03T07:16:42;9.70;53.40
15879;DHT22;61999;51.514;14.614;2022-09-03T07:19:13;9.70;53.30
15879;DHT22;61999;51.514;14.614;2022-09-03T07:21:42;9.70;53.40
15879;DHT22;61999;51.514;14.614;2022-09-03T07:24:14;9.90;54.60
15879;DHT22;61999;51.514;14.614;2022-09-03T07:26:43;10.20;54.70
15879;DHT22;61999;51.514;14.614;2022-09-03T07:29:14;10.50;54.30
15879;DHT22;61999;51.514;14.614;2022-09-03T07:31:45;10.70;53.30
15879;DHT22;61999;51.514;14.614;2022-09-03T07:34:15;10.80;50.70
15879;DHT22;61999;51.514;14.614;2022-09-03T07:36:45;11.00;51.80
15879;DHT22;61999;51.514;14.614;2022-09-03T07:39:16;11.20;50.60
15879;DHT22;61999;51.514;14.614;2022-09-03T07:41:45;11.40;50.80
15879;DHT22;61999;51.514;14.614;2022-09-03T07:44:16;11.60;50.90
15879;DHT22;61999;51.514;14.614;2022-09-03T07:46:45;11.60;50.30
15879;DHT22;61999;51.514;14.614;2022-09-03T07:49:16;11.80;48.90
15879;DHT22;61999;51.514;14.614;2022-09-03T07:51:45;12.00;49.80
15879;DHT22;61999;51.514;14.614;2022-09-03T07:54:16;12.00;48.20
15879;DHT22;61999;51.514;14.614;2022-09-03T07:56:44;12.10;48.50
15879;DHT22;61999;51.514;14.614;2022-09-03T07:59:12;12.40;49.60
15879;DHT22;61999;51.514;14.614;2022-09-03T08:01:40;12.60;49.80
15879;DHT22;61999;51.514;14.614;2022-09-03T08:04:08;12.90;48.00
15879;DHT22;61999;51.514;14.614;2022-09-03T08:06:38;12.90;47.60
15879;DHT22;61999;51.514;14.614;2022-09-03T08:09:10;13.20;48.40
15879;DHT22;61999;51.514;14.614;2022-09-03T08:11:41;13.40;47.60
15879;DHT22;61999;51.514;14.614;2022-09-03T08:14:11;13.60;47.40
15879;DHT22;61999;51.514;14.614;2022-09-03T08:16:42;13.60;46.20
15879;DHT22;61999;51.514;14.614;2022-09-03T08:19:14;13.60;45.40
15879;DHT22;61999;51.514;14.614;2022-09-03T08:21:45;13.60;45.50
15879;DHT22;61999;51.514;14.614;2022-09-03T08:24:15;13.70;46.50
15879;DHT22;61999;51.514;14.614;2022-09-03T08:26:44;13.80;46.50
15879;DHT22;61999;51.514;14.614;2022-09-03T08:29:17;13.90;46.30
15879;DHT22;61999;51.514;14.614;2022-09-03T08:31:45;14.00;45.40
15879;DHT22;61999;51.514;14.614;2022-09-03T08:34:13;14.00;44.40
15879;DHT22;61999;51.514;14.614;2022-09-03T08:36:43;14.30;45.90
15879;DHT22;61999;51.514;14.614;2022-09-03T08:39:13;14.50;45.60
15879;DHT22;61999;51.514;14.614;2022-09-03T08:41:53;14.80;42.80
15879;DHT22;61999;51.514;14.614;2022-09-03T08:44:42;14.80;42.20
15879;DHT22;61999;51.514;14.614;2022-09-03T08:47:17;14.60;43.00
15879;DHT22;61999;51.514;14.614;2022-09-03T08:49:51;14.80;42.50
15879;DHT22;61999;51.514;14.614;2022-09-03T08:52:28;14.90;42.10
15879;DHT22;61999;51.514;14.614;2022-09-03T08:55:14;15.00;41.60
15879;DHT22;61999;51.514;14.614;2022-09-03T08:57:48;15.20;42.40
15879;DHT22;61999;51.514;14.614;2022-09-03T09:00:18;14.90;41.30
15879;DHT22;61999;51.514;14.614;2022-09-03T09:03:01;14.90;41.80
15879;DHT22;61999;51.514;14.614;2022-09-03T09:05:47;15.00;40.90
15879;DHT22;61999;51.514;14.614;2022-09-03T09:08:29;15.10;41.00
15879;DHT22;61999;51.514;14.614;2022-09-03T09:11:10;15.00;41.50
15879;DHT22;61999;51.514;14.614;2022-09-03T09:13:48;15.50;43.00
15879;DHT22;61999;51.514;14.614;2022-09-03T09:16:28;15.90;40.80
15879;DHT22;61999;51.514;14.614;2022-09-03T09:19:21;16.20;41.80
15879;DHT22;61999;51.514;14.614;2022-09-03T09:22:09;16.30;40.20
15879;DHT22;61999;51.514;14.614;2022-09-03T09:24:44;16.10;40.20
15879;DHT22;61999;51.514;14.614;2022-09-03T09:27:15;16.40;39.70
15879;DHT22;61999;51.514;14.614;2022-09-03T09:29:47;16.70;40.70
15879;DHT22;61999;51.514;14.614;2022-09-03T09:32:18;17.00;40.70
15879;DHT22;61999;51.514;14.614;2022-09-03T09:34:47;17.30;39.10
15879;DHT22;61999;51.514;14.614;2022-09-03T09:37:17;17.50;39.70
15879;DHT22;61999;51.514;14.614;2022-09-03T09:39:55;18.00;40.00
15879;DHT22;61999;51.514;14.614;2022-09-03T09:42:25;18.20;37.40
15879;DHT22;61999;51.514;14.614;2022-09-03T09:45:07;18.10;36.50
15879;DHT22;61999;51.514;14.614;2022-09-03T09:47:38;18.10;38.90
15879;DHT22;61999;51.514;14.614;2022-09-03T09:50:17;18.50;37.20
15879;DHT22;61999;51.514;14.614;2022-09-03T09:52:47;18.60;36.20
15879;DHT22;61999;51.514;14.614;2022-09-03T09:55:27;18.20;36.00
15879;DHT22;61999;51.514;14.614;2022-09-03T09:58:04;18.30;36.50
15879;DHT22;61999;51.514;14.614;2022-09-03T10:00:37;18.70;36.30
15879;DHT22;61999;51.514;14.614;2022-09-03T10:03:09;19.20;37.40
15879;DHT22;61999;51.514;14.614;2022-09-03T10:05:39;19.70;37.00
15879;DHT22;61999;51.514;14.614;2022-09-03T10:08:19;19.90;33.00
15879;DHT22;61999;51.514;14.614;2022-09-03T10:10:50;20.00;32.90
15879;DHT22;61999;51.514;14.614;2022-09-03T10:13:20;20.60;34.30
15879;DHT22;61999;51.514;14.614;2022-09-03T10:15:57;20.80;31.20
15879;DHT22;61999;51.514;14.614;2022-09-03T10:18:36;20.70;31.80
15879;DHT22;61999;51.514;14.614;2022-09-03T10:21:11;20.50;31.90
15879;DHT22;61999;51.514;14.614;2022-09-03T10:23:51;20.90;31.20
15879;DHT22;61999;51.514;14.614;2022-09-03T10:26:29;21.00;32.00
15879;DHT22;61999;51.514;14.614;2022-09-03T10:29:00;20.90;29.80
15879;DHT22;61999;51.514;14.614;2022-09-03T10:31:44;20.80;32.10
15879;DHT22;61999;51.514;14.614;2022-09-03T10:34:30;20.70;30.80
15879;DHT22;61999;51.514;14.614;2022-09-03T10:37:14;20.70;30.00
15879;DHT22;61999;51.514;14.614;2022-09-03T10:40:01;20.90;31.20
15879;DHT22;61999;51.514;14.614;2022-09-03T10:42:47;21.00;31.60
15879;DHT22;61999;51.514;14.614;2022-09-03T10:45:31;21.30;30.90
15879;DHT22;61999;51.514;14.614;2022-09-03T10:48:28;21.60;30.90
15879;DHT22;61999;51.514;14.614;2022-09-03T10:51:10;21.90;30.60
15879;DHT22;61999;51.514;14.614;2022-09-03T10:54:26;22.20;30.60
15879;DHT22;61999;51.514;14.614;2022-09-03T10:57:20;22.30;29.70
15879;DHT22;61999;51.514;14.614;2022-09-03T11:00:04;22.20;29.60
15879;DHT22;61999;51.514;14.614;2022-09-03T11:02:51;22.20;29.50
15879;DHT22;61999;51.514;14.614;2022-09-03T11:05:39;21.60;29.80
15879;DHT22;61999;51.514;14.614;2022-09-03T11:08:15;20.90;30.10
15879;DHT22;61999;51.514;14.614;2022-09-03T11:10:51;21.00;31.20
15879;DHT22;61999;51.514;14.614;2022-09-03T11:13:26;21.20;30.00
15879;DHT22;61999;51.514;14.614;2022-09-03T11:16:06;21.30;30.70
15879;DHT22;61999;51.514;14.614;2022-09-03T11:18:43;21.70;30.20
15879;DHT22;61999;51.514;14.614;2022-09-03T11:21:18;22.10;30.50
15879;DHT22;61999;51.514;14.614;2022-09-03T11:24:00;22.40;29.30
15879;DHT22;61999;51.514;14.614;2022-09-03T11:26:44;22.20;29.20
15879;DHT22;61999;51.514;14.614;2022-09-03T11:29:33;22.90;29.50
15879;DHT22;61999;51.514;14.614;2022-09-03T11:32:16;23.20;30.00
15879;DHT22;61999;51.514;14.614;2022-09-03T11:34:49;24.00;30.00
15879;DHT22;61999;51.514;14.614;2022-09-03T11:37:22;24.30;27.90
15879;DHT22;61999;51.514;14.614;2022-09-03T11:39:56;24.00;28.30
15879;DHT22;61999;51.514;14.614;2022-09-03T11:42:33;24.70;28.10
15879;DHT22;61999;51.514;14.614;2022-09-03T11:45:21;25.30;28.60
15879;DHT22;61999;51.514;14.614;2022-09-03T11:47:53;25.70;28.10
15879;DHT22;61999;51.514;14.614;2022-09-03T11:50:23;25.50;26.70
15879;DHT22;61999;51.514;14.614;2022-09-03T11:53:05;25.20;26.80
15879;DHT22;61999;51.514;14.614;2022-09-03T11:55:51;25.50;27.70
15879;DHT22;61999;51.514;14.614;2022-09-03T11:58:24;25.30;27.60
15879;DHT22;61999;51.514;14.614;2022-09-03T12:00:54;25.70;27.70
15879;DHT22;61999;51.514;14.614;2022-09-03T12:03:28;25.90;26.50
15879;DHT22;61999;51.514;14.614;2022-09-03T12:06:21;26.40;26.70
15879;DHT22;61999;51.514;14.614;2022-09-03T12:09:22;26.70;26.10
15879;DHT22;61999;51.514;14.614;2022-09-03T12:12:17;26.40;25.00
15879;DHT22;61999;51.514;14.614;2022-09-03T12:15:04;25.50;25.80
15879;DHT22;61999;51.514;14.614;2022-09-03T12:17:47;25.20;26.30
15879;DHT22;61999;51.514;14.614;2022-09-03T12:20:41;25.10;26.00
15879;DHT22;61999;51.514;14.614;2022-09-03T12:23:11;24.90;26.90
15879;DHT22;61999;51.514;14.614;2022-09-03T12:25:42;24.90;26.30
15879;DHT22;61999;51.514;14.614;2022-09-03T12:28:16;24.10;27.20
15879;DHT22;61999;51.514;14.614;2022-09-03T12:30:47;23.70;27.70
15879;DHT22;61999;51.514;14.614;2022-09-03T12:33:19;24.30;28.50
15879;DHT22;61999;51.514;14.614;2022-09-03T12:35:56;24.60;28.40
15879;DHT22;61999;51.514;14.614;2022-09-03T12:38:26;25.30;28.70
15879;DHT22;61999;51.514;14.614;2022-09-03T12:41:00;25.50;26.50
15879;DHT22;61999;51.514;14.614;2022-09-03T12:43:50;25.90;26.70
15879;DHT22;61999;51.514;14.614;2022-09-03T12:46:23;25.70;26.60
15879;DHT22;61999;51.514;14.614;2022-09-03T12:48:56;25.90;26.20
15879;DHT22;61999;51.514;14.614;2022-09-03T12:51:51;26.40;26.70
15879;DHT22;61999;51.514;14.614;2022-09-03T12:54:31;26.90;25.50
15879;DHT22;61999;51.514;14.614;2022-09-03T12:57:00;27.20;25.10
15879;DHT22;61999;51.514;14.614;2022-09-03T12:59:32;26.40;25.00
15879;DHT22;61999;51.514;14.614;2022-09-03T13:02:10;25.80;26.30
15879;DHT22;61999;51.514;14.614;2022-09-03T13:04:44;25.40;26.00
15879;DHT22;61999;51.514;14.614;2022-09-03T13:07:21;25.40;26.20
15879;DHT22;61999;51.514;14.614;2022-09-03T13:09:59;25.00;26.60
15879;DHT22;61999;51.514;14.614;2022-09-03T13:12:32;24.10;27.00
15879;DHT22;61999;51.514;14.614;2022-09-03T13:15:15;23.90;27.70
15879;DHT22;61999;51.514;14.614;2022-09-03T13:18:07;23.70;27.70
15879;DHT22;61999;51.514;14.614;2022-09-03T13:20:54;23.70;27.90
15879;DHT22;61999;51.514;14.614;2022-09-03T13:23:49;23.70;27.60
15879;DHT22;61999;51.514;14.614;2022-09-03T13:26:37;23.60;27.90
15879;DHT22;61999;51.514;14.614;2022-09-03T13:29:36;22.90;27.90
15879;DHT22;61999;51.514;14.614;2022-09-03T13:32:15;22.30;28.30
15879;DHT22;61999;51.514;14.614;2022-09-03T13:34:58;22.70;28.50
15879;DHT22;61999;51.514;14.614;2022-09-03T13:37:37;22.80;28.60
15879;DHT22;61999;51.514;14.614;2022-09-03T13:40:15;23.10;28.30
15879;DHT22;61999;51.514;14.614;2022-09-03T13:42:51;23.20;28.40
15879;DHT22;61999;51.514;14.614;2022-09-03T13:45:28;23.30;28.40
15879;DHT22;61999;51.514;14.614;2022-09-03T13:48:08;23.50;28.70
15879;DHT22;61999;51.514;14.614;2022-09-03T13:51:02;23.90;29.00
15879;DHT22;61999;51.514;14.614;2022-09-03T13:53:48;24.30;27.80
15879;DHT22;61999;51.514;14.614;2022-09-03T13:56:35;24.30;27.30
15879;DHT22;61999;51.514;14.614;2022-09-03T13:59:19;24.00;27.20
15879;DHT22;61999;51.514;14.614;2022-09-03T14:02:19;23.50;27.70
15879;DHT22;61999;51.514;14.614;2022-09-03T14:05:02;22.70;28.40
15879;DHT22;61999;51.514;14.614;2022-09-03T14:07:43;22.70;28.50
15879;DHT22;61999;51.514;14.614;2022-09-03T14:10:22;22.90;28.30
15879;DHT22;61999;51.514;14.614;2022-09-03T14:13:15;23.00;28.10
15879;DHT22;61999;51.514;14.614;2022-09-03T14:16:02;23.30;28.40
15879;DHT22;61999;51.514;14.614;2022-09-03T14:18:40;23.00;28.30
15879;DHT22;61999;51.514;14.614;2022-09-03T14:21:16;22.80;28.80
15879;DHT22;61999;51.514;14.614;2022-09-03T14:23:54;23.30;29.20
15879;DHT22;61999;51.514;14.614;2022-09-03T14:26:32;23.50;29.00
15879;DHT22;61999;51.514;14.614;2022-09-03T14:29:14;23.60;29.00
15879;DHT22;61999;51.514;14.614;2022-09-03T14:32:00;24.00;28.90
15879;DHT22;61999;51.514;14.614;2022-09-03T14:34:55;24.50;29.50
15879;DHT22;61999;51.514;14.614;2022-09-03T14:37:49;24.40;27.90
15879;DHT22;61999;51.514;14.614;2022-09-03T14:40:30;24.00;28.00
15879;DHT22;61999;51.514;14.614;2022-09-03T14:43:15;24.10;28.40
15879;DHT22;61999;51.514;14.614;2022-09-03T14:46:15;24.30;28.30
15879;DHT22;61999;51.514;14.614;2022-09-03T14:49:03;24.60;27.90
15879;DHT22;61999;51.514;14.614;2022-09-03T14:51:56;24.50;28.00
15879;DHT22;61999;51.514;14.614;2022-09-03T14:54:45;24.60;27.90
15879;DHT22;61999;51.514;14.614;2022-09-03T14:57:47;24.50;28.00
15879;DHT22;61999;51.514;14.614;2022-09-03T15:00:44;24.20;27.50
15879;DHT22;61999;51.514;14.614;2022-09-03T15:03:39;24.10;28.00
15879;DHT22;61999;51.514;14.614;2022-09-03T15:06:24;23.90;28.00
15879;DHT22;61999;51.514;14.614;2022-09-03T15:09:30;23.70;28.20
15879;DHT22;61999;51.514;14.614;2022-09-03T15:12:09;23.70;28.50
15879;DHT22;61999;51.514;14.614;2022-09-03T15:14:51;23.70;28.70
15879;DHT22;61999;51.514;14.614;2022-09-03T15:17:35;23.30;28.70
15879;DHT22;61999;51.514;14.614;2022-09-03T15:20:31;23.10;28.60
15879;DHT22;61999;51.514;14.614;2022-09-03T15:23:24;23.00;28.80
15879;DHT22;61999;51.514;14.614;2022-09-03T15:26:23;22.70;28.90
15879;DHT22;61999;51.514;14.614;2022-09-03T15:29:16;22.20;29.40
15879;DHT22;61999;51.514;14.614;2022-09-03T15:31:59;21.50;30.10
15879;DHT22;61999;51.514;14.614;2022-09-03T15:34:50;21.20;30.60
15879;DHT22;61999;51.514;14.614;2022-09-03T15:37:27;20.80;30.80
15879;DHT22;61999;51.514;14.614;2022-09-03T15:40:06;20.90;31.30
15879;DHT22;61999;51.514;14.614;2022-09-03T15:42:43;20.50;31.30
15879;DHT22;61999;51.514;14.614;2022-09-03T15:45:20;20.50;31.70
15879;DHT22;61999;51.514;14.614;2022-09-03T15:48:09;20.40;32.00
15879;DHT22;61999;51.514;14.614;2022-09-03T15:50:53;20.50;32.10
15879;DHT22;61999;51.514;14.614;2022-09-03T15:56:21;20.50;32.30
15879;DHT22;61999;51.514;14.614;2022-09-03T15:59:00;20.40;32.10
15879;DHT22;61999;51.514;14.614;2022-09-03T16:01:38;20.30;32.10
15879;DHT22;61999;51.514;14.614;2022-09-03T16:04:32;20.30;32.40
15879;DHT22;61999;51.514;14.614;2022-09-03T16:07:22;20.40;32.40
15879;DHT22;61999;51.514;14.614;2022-09-03T16:10:00;20.40;32.50
15879;DHT22;61999;51.514;14.614;2022-09-03T16:12:58;20.30;32.40
15879;DHT22;61999;51.514;14.614;2022-09-03T16:15:35;20.10;32.60
15879;DHT22;61999;51.514;14.614;2022-09-03T16:18:14;20.10;33.10
15879;DHT22;61999;51.514;14.614;2022-09-03T16:20:55;20.20;33.20
15879;DHT22;61999;51.514;14.614;2022-09-03T16:23:29;20.10;32.90
15879;DHT22;61999;51.514;14.614;2022-09-03T16:26:09;20.30;33.40